Time;durP1;ratioP1;P1;durP2;ratioP2;P2;SDS_P1;SDS_P2;PMS_P1;PMS_P2;Temp;Humidity;BMP_temperature;BMP_pressure;BME280_temperature;BME280_humidity;BME280_pressure;Samples;Min_cycle;Max_cycle;Signal;HPM_P1;HPM_P2
2021/08/02 00:00:27;;;;;;;11.93;6.33;;;14.40;99.90;;;;;;5140809;27;20198;-68
2021/08/02 00:03:19;;;;;;;6.63;5.10;;;14.40;99.90;;;;;;5138376;27;20831;-68
2021/08/02 00:06:06;;;;;;;5.90;5.27;;;14.40;99.90;;;;;;5145926;27;20655;-68
2021/08/02 00:08:57;;;;;;;5.33;4.77;;;14.40;99.90;;;;;;5139719;27;20257;-68
2021/08/02 00:11:49;;;;;;;5.60;4.70;;;14.40;99.90;;;;;;5131530;27;20201;-68
2021/08/02 00:14:39;;;;;;;5.50;4.70;;;14.40;99.90;;;;;;5149787;27;20198;-68
2021/08/02 00:17:27;;;;;;;7.77;4.73;;;14.40;99.90;;;;;;5131076;27;20209;-68
2021/08/02 00:20:15;;;;;;;6.53;5.90;;;14.40;99.90;;;;;;5140063;27;20202;-68
2021/08/02 00:23:04;;;;;;;8.70;6.20;;;14.30;99.90;;;;;;5149316;27;20651;-68
2021/08/02 00:25:52;;;;;;;14.93;6.67;;;14.30;99.90;;;;;;5136225;27;20201;-68
2021/08/02 00:28:40;;;;;;;10.87;7.67;;;14.30;99.90;;;;;;5132367;27;20202;-68
2021/08/02 00:31:28;;;;;;;11.93;7.30;;;14.20;99.90;;;;;;5145595;27;20191;-68
2021/08/02 00:34:16;;;;;;;10.13;6.87;;;14.10;99.90;;;;;;5132142;27;20225;-68
2021/08/02 00:37:05;;;;;;;13.80;7.57;;;14.10;99.90;;;;;;5147478;27;20198;-68
2021/08/02 00:39:55;;;;;;;12.93;6.80;;;14.00;99.90;;;;;;5131809;27;20761;-68
2021/08/02 00:42:58;;;;;;;11.30;7.27;;;14.00;99.90;;;;;;5147093;27;20548;-68
2021/08/02 00:45:45;;;;;;;12.20;7.70;;;13.90;99.90;;;;;;5136280;27;20315;-68
2021/08/02 00:48:37;;;;;;;12.93;8.77;;;13.90;99.90;;;;;;5140238;27;20205;-67
2021/08/02 00:51:25;;;;;;;13.97;8.67;;;13.80;99.90;;;;;;5145485;27;20204;-68
2021/08/02 00:54:12;;;;;;;11.03;8.83;;;13.80;99.90;;;;;;5132835;27;20307;-68
2021/08/02 00:57:02;;;;;;;11.97;9.00;;;13.80;99.90;;;;;;5143633;27;20277;-67
2021/08/02 00:59:49;;;;;;;11.10;9.03;;;13.90;99.90;;;;;;5142732;27;20208;-68
2021/08/02 01:02:39;;;;;;;11.80;8.80;;;13.80;99.90;;;;;;5141901;27;20203;-68
2021/08/02 01:05:28;;;;;;;12.93;9.07;;;13.80;99.90;;;;;;5145728;27;20205;-68
2021/08/02 01:08:16;;;;;;;14.83;9.87;;;13.80;99.90;;;;;;5143539;27;20232;-68
2021/08/02 01:11:07;;;;;;;17.57;10.07;;;13.70;99.90;;;;;;5138574;27;20200;-68
2021/08/02 01:13:55;;;;;;;16.23;11.23;;;13.70;99.90;;;;;;5143800;27;20317;-68
2021/08/02 01:16:42;;;;;;;16.50;11.17;;;13.70;99.90;;;;;;5132489;27;20293;-68
2021/08/02 01:19:30;;;;;;;13.23;9.63;;;13.70;99.90;;;;;;5133946;27;20200;-68
2021/08/02 01:22:21;;;;;;;20.33;10.53;;;13.70;99.90;;;;;;5134043;27;20202;-68
2021/08/02 01:25:53;;;;;;;14.57;10.20;;;13.70;99.90;;;;;;5129344;28;20195;-68
2021/08/02 01:29:19;;;;;;;15.10;10.13;;;13.70;99.90;;;;;;5027382;28;20208;-68
2021/08/02 01:32:07;;;;;;;14.50;9.63;;;13.70;99.90;;;;;;4968274;28;20203;-68
2021/08/02 01:34:54;;;;;;;16.63;10.50;;;13.80;99.90;;;;;;4978070;28;20609;-69
2021/08/02 01:37:44;;;;;;;19.97;11.40;;;13.80;99.90;;;;;;4978968;28;20207;-68
2021/08/02 01:40:31;;;;;;;20.30;11.93;;;13.80;99.90;;;;;;4974764;28;20200;-68
2021/08/02 01:43:19;;;;;;;16.57;11.40;;;13.80;99.90;;;;;;4985472;28;20328;-68
2021/08/02 01:46:10;;;;;;;15.00;11.70;;;13.80;99.90;;;;;;4973655;28;20587;-68
2021/08/02 01:49:01;;;;;;;17.80;11.33;;;13.70;99.90;;;;;;4968454;28;20233;-68
2021/08/02 01:51:49;;;;;;;16.40;11.23;;;13.80;99.90;;;;;;4983706;28;20701;-69
2021/08/02 01:54:41;;;;;;;15.60;11.20;;;13.70;99.90;;;;;;4983800;28;20252;-68
2021/08/02 01:57:30;;;;;;;17.93;10.53;;;13.70;99.90;;;;;;4980987;28;20278;-69
2021/08/02 02:00:18;;;;;;;15.07;11.20;;;13.80;99.90;;;;;;4978263;28;20201;-68
2021/08/02 02:03:10;;;;;;;16.43;11.17;;;13.80;99.90;;;;;;4970755;28;20200;-68
2021/08/02 02:06:01;;;;;;;20.50;11.63;;;13.70;99.90;;;;;;5035216;28;20594;-68
2021/08/02 02:08:52;;;;;;;19.77;13.10;;;13.70;99.90;;;;;;5094894;28;20223;-69
2021/08/02 02:11:44;;;;;;;17.87;12.50;;;13.80;99.90;;;;;;5113151;28;20238;-68
2021/08/02 02:14:32;;;;;;;24.03;15.07;;;13.80;99.90;;;;;;5112577;28;20272;-68
2021/08/02 02:17:20;;;;;;;23.33;15.37;;;13.70;99.90;;;;;;5109000;28;20208;-68
2021/08/02 02:20:09;;;;;;;24.10;14.77;;;13.80;99.90;;;;;;5107698;28;20585;-68
2021/08/02 02:22:57;;;;;;;21.90;15.77;;;13.80;99.90;;;;;;5111777;28;20789;-68
2021/08/02 02:25:44;;;;;;;25.90;16.77;;;13.80;99.90;;;;;;5113941;27;20747;-68
2021/08/02 02:28:34;;;;;;;32.67;17.43;;;13.90;99.90;;;;;;5113764;27;20227;-68
2021/08/02 02:31:21;;;;;;;27.53;16.97;;;13.90;99.90;;;;;;5111975;28;20201;-68
2021/08/02 02:34:09;;;;;;;34.27;17.57;;;13.90;99.90;;;;;;5105264;28;20248;-68
2021/08/02 02:36:57;;;;;;;30.83;19.87;;;13.90;99.90;;;;;;5112798;28;20204;-68
2021/08/02 02:39:44;;;;;;;31.83;18.70;;;13.90;99.90;;;;;;5104103;28;20712;-68
2021/08/02 02:42:32;;;;;;;31.20;18.67;;;14.00;99.90;;;;;;5113548;27;20203;-68
2021/08/02 02:45:21;;;;;;;31.60;19.50;;;13.90;99.90;;;;;;5106436;28;20204;-68
2021/08/02 02:48:08;;;;;;;29.33;18.80;;;14.00;99.90;;;;;;5111777;28;20686;-68
2021/08/02 02:50:56;;;;;;;33.33;20.03;;;14.00;99.90;;;;;;5105908;28;20652;-68
2021/08/02 02:53:44;;;;;;;34.07;19.67;;;13.90;99.90;;;;;;5111995;28;20225;-68
2021/08/02 02:56:31;;;;;;;31.73;18.70;;;13.90;99.90;;;;;;5105675;28;20654;-68
2021/08/02 02:59:19;;;;;;;31.13;19.43;;;13.90;99.90;;;;;;5133461;27;20237;-69
2021/08/02 03:02:09;;;;;;;27.53;19.07;;;13.90;99.90;;;;;;5119482;27;20227;-68
2021/08/02 03:04:58;;;;;;;28.57;18.33;;;13.90;99.90;;;;;;5134251;27;20193;-67
2021/08/02 03:07:45;;;;;;;29.43;17.83;;;13.90;99.90;;;;;;5147029;27;20206;-67
2021/08/02 03:10:33;;;;;;;30.40;20.20;;;13.90;99.90;;;;;;5134145;27;20211;-67
2021/08/02 03:13:21;;;;;;;31.90;19.87;;;13.90;99.90;;;;;;5146771;27;20217;-67
2021/08/02 03:16:08;;;;;;;36.10;20.57;;;13.90;99.90;;;;;;5141487;27;20210;-67
2021/08/02 03:18:57;;;;;;;39.57;22.13;;;13.90;99.90;;;;;;5141321;27;20245;-67
2021/08/02 03:21:45;;;;;;;40.17;22.20;;;13.90;99.90;;;;;;5143410;27;20657;-67
2021/08/02 03:24:35;;;;;;;40.30;23.73;;;13.90;99.90;;;;;;5143436;27;20228;-67
2021/08/02 03:27:26;;;;;;;42.40;24.40;;;13.90;99.90;;;;;;5131719;27;20207;-67
2021/08/02 03:30:14;;;;;;;37.47;23.77;;;13.90;99.90;;;;;;5135455;27;20193;-67
2021/08/02 03:33:02;;;;;;;39.63;23.13;;;13.90;99.90;;;;;;5133330;27;20236;-67
2021/08/02 03:35:51;;;;;;;37.23;22.70;;;14.00;99.90;;;;;;5143304;27;20192;-67
2021/08/02 03:38:38;;;;;;;37.27;24.63;;;14.00;99.90;;;;;;5132583;27;20506;-67
2021/08/02 03:41:26;;;;;;;38.33;24.80;;;14.00;99.90;;;;;;5132432;27;20203;-67
2021/08/02 03:44:13;;;;;;;40.33;24.30;;;14.00;99.90;;;;;;5146068;27;20200;-67
2021/08/02 03:47:01;;;;;;;39.77;25.10;;;14.00;99.90;;;;;;5127244;27;20302;-67
2021/08/02 03:49:49;;;;;;;37.43;24.37;;;14.00;99.90;;;;;;5152066;27;20676;-67
2021/08/02 03:52:38;;;;;;;39.20;24.97;;;14.00;99.90;;;;;;5152433;27;20203;-67
2021/08/02 03:55:26;;;;;;;41.73;26.17;;;14.00;99.90;;;;;;5151767;27;20231;-67
2021/08/02 03:58:13;;;;;;;41.43;25.40;;;14.00;99.90;;;;;;4665839;27;20224;-67
2021/08/02 04:01:01;;;;;;;40.97;27.00;;;14.00;99.90;;;;;;5143573;27;20684;-67
2021/08/02 04:03:48;;;;;;;42.27;25.83;;;14.00;99.90;;;;;;5153043;27;20195;-67
2021/08/02 04:06:36;;;;;;;33.10;23.13;;;14.00;99.90;;;;;;5152835;27;20242;-67
2021/08/02 04:09:25;;;;;;;33.73;19.87;;;14.00;99.90;;;;;;5153175;27;20201;-67
2021/08/02 04:12:12;;;;;;;34.03;20.30;;;14.00;99.90;;;;;;5143512;27;20209;-67
2021/08/02 04:15:00;;;;;;;34.73;20.30;;;14.00;99.90;;;;;;5151002;27;20224;-67
2021/08/02 04:17:47;;;;;;;34.43;20.37;;;14.00;99.90;;;;;;5145143;27;20209;-67
2021/08/02 04:20:35;;;;;;;31.83;19.53;;;14.00;99.90;;;;;;5139386;27;20197;-67
2021/08/02 04:23:22;;;;;;;30.43;18.13;;;14.10;99.90;;;;;;5142907;27;20294;-67
2021/08/02 04:26:12;;;;;;;29.50;16.40;;;14.00;99.90;;;;;;5138809;27;20198;-67
2021/08/02 04:29:00;;;;;;;36.20;17.57;;;14.00;99.90;;;;;;5151443;27;20201;-67
2021/08/02 04:31:47;;;;;;;30.07;18.03;;;14.00;99.90;;;;;;5151456;27;20212;-67
2021/08/02 04:34:35;;;;;;;26.90;17.73;;;14.00;99.90;;;;;;5150771;27;20215;-67
2021/08/02 04:37:22;;;;;;;28.47;18.43;;;14.10;99.90;;;;;;5152107;27;20261;-67
2021/08/02 04:40:10;;;;;;;29.47;19.13;;;14.10;99.90;;;;;;5150408;27;20199;-67
2021/08/02 04:42:59;;;;;;;31.67;18.93;;;14.10;99.90;;;;;;5130775;27;20212;-67
2021/08/02 04:45:47;;;;;;;34.20;20.20;;;14.10;99.90;;;;;;5145709;27;20585;-67
2021/08/02 04:48:35;;;;;;;32.73;19.40;;;14.10;99.90;;;;;;5132160;27;20197;-67
2021/08/02 04:51:22;;;;;;;27.90;16.63;;;14.10;99.90;;;;;;5149074;27;20206;-67
2021/08/02 04:54:10;;;;;;;25.63;15.90;;;14.10;99.90;;;;;;5149560;27;20220;-67
2021/08/02 04:56:57;;;;;;;29.87;15.63;;;14.10;99.90;;;;;;5143888;27;20626;-67
2021/08/02 04:59:46;;;;;;;23.97;14.30;;;14.20;99.90;;;;;;5139758;27;20223;-67
2021/08/02 05:02:34;;;;;;;21.53;13.17;;;14.10;99.90;;;;;;5147162;27;20632;-67
2021/08/02 05:05:22;;;;;;;21.87;12.90;;;14.20;99.90;;;;;;5133606;27;20572;-67
2021/08/02 05:08:09;;;;;;;21.10;12.23;;;14.10;99.90;;;;;;5144432;27;20325;-67
2021/08/02 05:10:57;;;;;;;19.87;11.87;;;14.10;99.90;;;;;;5138824;27;20187;-67
2021/08/02 05:13:44;;;;;;;20.90;10.30;;;14.10;99.90;;;;;;5141664;27;20212;-67
2021/08/02 05:16:34;;;;;;;17.20;10.60;;;14.20;99.90;;;;;;5136217;27;20200;-67
2021/08/02 05:19:21;;;;;;;14.77;10.10;;;14.20;99.90;;;;;;5137471;27;20550;-67
2021/08/02 05:22:09;;;;;;;18.53;10.03;;;14.20;99.90;;;;;;5142045;27;20195;-67
2021/08/02 05:24:56;;;;;;;25.43;10.87;;;14.30;99.90;;;;;;5144861;27;20279;-67
2021/08/02 05:27:48;;;;;;;13.77;9.67;;;14.40;99.90;;;;;;5131224;27;20266;-66
2021/08/02 05:30:36;;;;;;;21.63;10.00;;;14.40;99.90;;;;;;5144264;27;20602;-67
2021/08/02 05:33:26;;;;;;;13.87;9.87;;;14.40;99.90;;;;;;5131753;27;20197;-67
2021/08/02 05:36:13;;;;;;;15.87;10.40;;;14.40;99.90;;;;;;5131764;27;20197;-67
2021/08/02 05:39:01;;;;;;;18.70;11.33;;;14.40;99.90;;;;;;5147017;27;20196;-67
2021/08/02 05:41:48;;;;;;;16.20;10.50;;;14.50;99.90;;;;;;5138705;27;20206;-67
2021/08/02 05:44:36;;;;;;;17.67;11.03;;;14.40;99.90;;;;;;5138018;27;20182;-67
2021/08/02 05:47:23;;;;;;;21.10;11.23;;;14.50;99.90;;;;;;5149403;27;20227;-67
2021/08/02 05:50:13;;;;;;;17.83;11.40;;;14.50;99.90;;;;;;5150800;27;20193;-67
2021/08/02 05:53:00;;;;;;;17.20;11.57;;;14.50;99.90;;;;;;5138446;27;20208;-67
2021/08/02 05:55:48;;;;;;;20.20;10.47;;;14.50;99.90;;;;;;5144085;27;20557;-67
2021/08/02 05:58:35;;;;;;;14.57;9.90;;;14.60;99.90;;;;;;5148496;27;20828;-67
2021/08/02 06:01:23;;;;;;;16.60;10.73;;;14.60;99.90;;;;;;5137874;27;20212;-67
2021/08/02 06:04:10;;;;;;;14.40;9.73;;;14.50;99.90;;;;;;5154863;27;20212;-67
2021/08/02 06:06:59;;;;;;;19.87;9.80;;;14.60;99.90;;;;;;5144569;27;20198;-67
2021/08/02 06:09:49;;;;;;;15.80;9.53;;;14.70;99.90;;;;;;5143165;27;20204;-67
2021/08/02 06:12:37;;;;;;;12.73;9.23;;;14.60;99.90;;;;;;5145666;27;20591;-67
2021/08/02 06:15:24;;;;;;;9.40;5.97;;;14.70;99.90;;;;;;5142397;27;20301;-67
2021/08/02 06:18:12;;;;;;;13.47;8.20;;;14.70;99.90;;;;;;5140217;27;20207;-67
2021/08/02 06:20:59;;;;;;;14.50;8.13;;;14.70;99.90;;;;;;5142210;27;20644;-67
2021/08/02 06:23:48;;;;;;;15.17;7.67;;;14.60;99.90;;;;;;5152439;27;20207;-67
2021/08/02 06:26:37;;;;;;;12.60;8.17;;;14.50;99.90;;;;;;5137561;27;20223;-67
2021/08/02 06:29:25;;;;;;;13.63;8.53;;;14.50;99.90;;;;;;5145379;27;20202;-67
2021/08/02 06:32:12;;;;;;;10.77;7.30;;;14.60;99.90;;;;;;5146443;27;20591;-67
2021/08/02 06:35:00;;;;;;;12.60;6.23;;;14.60;99.90;;;;;;5136078;27;20595;-67
2021/08/02 06:37:47;;;;;;;11.47;6.80;;;14.60;99.90;;;;;;5148100;27;20286;-67
2021/08/02 06:40:36;;;;;;;11.33;6.20;;;14.60;99.90;;;;;;5149103;27;20211;-67
2021/08/02 06:43:24;;;;;;;10.60;5.63;;;14.60;99.90;;;;;;5136338;27;20196;-67
2021/08/02 06:46:11;;;;;;;13.90;6.00;;;14.60;99.90;;;;;;5139774;27;20202;-67
2021/08/02 06:48:59;;;;;;;11.13;5.83;;;14.60;99.90;;;;;;5146201;27;20200;-67
2021/08/02 06:51:46;;;;;;;10.00;6.43;;;14.60;99.90;;;;;;5137511;27;20205;-67
2021/08/02 06:54:34;;;;;;;8.90;6.57;;;14.60;99.90;;;;;;5138478;27;20217;-67
2021/08/02 06:57:23;;;;;;;8.33;5.97;;;14.60;99.90;;;;;;5149493;27;20204;-67
2021/08/02 07:00:11;;;;;;;8.83;5.67;;;14.60;99.90;;;;;;5142050;27;20209;-67
2021/08/02 07:02:59;;;;;;;8.63;6.20;;;14.60;99.90;;;;;;5141426;27;20221;-67
2021/08/02 07:05:47;;;;;;;10.50;6.30;;;14.60;99.90;;;;;;5149356;27;20319;-67
2021/08/02 07:08:37;;;;;;;13.80;6.63;;;14.70;99.90;;;;;;5142320;27;20364;-67
2021/08/02 07:11:24;;;;;;;7.83;5.90;;;14.80;99.90;;;;;;5146812;27;20632;-67
2021/08/02 07:14:13;;;;;;;11.57;6.10;;;14.90;99.90;;;;;;5134558;27;20198;-67
2021/08/02 07:17:01;;;;;;;7.20;5.33;;;14.80;99.90;;;;;;5147221;27;20990;-67
2021/08/02 07:19:48;;;;;;;13.53;6.37;;;14.90;99.90;;;;;;5138560;27;20197;-67
2021/08/02 07:22:36;;;;;;;12.97;6.57;;;14.90;99.90;;;;;;5146056;27;20200;-67
2021/08/02 07:25:24;;;;;;;11.40;6.90;;;15.00;99.90;;;;;;5147100;27;20371;-67
2021/08/02 07:28:11;;;;;;;12.43;7.10;;;15.00;99.90;;;;;;5144816;27;20222;-67
2021/08/02 07:31:00;;;;;;;12.37;7.13;;;15.10;99.90;;;;;;5144469;27;20198;-67
2021/08/02 07:33:48;;;;;;;11.10;7.33;;;15.40;99.90;;;;;;5151782;27;20565;-67
2021/08/02 07:36:36;;;;;;;12.57;7.27;;;15.50;99.90;;;;;;5145312;27;20189;-67
2021/08/02 07:39:23;;;;;;;11.23;6.50;;;15.60;99.90;;;;;;5144783;27;20687;-67
2021/08/02 07:42:11;;;;;;;13.17;6.90;;;15.70;99.90;;;;;;5138298;27;20330;-67
2021/08/02 07:44:58;;;;;;;10.23;7.33;;;15.70;99.90;;;;;;5137768;27;20195;-67
2021/08/02 07:47:48;;;;;;;11.40;7.33;;;15.70;99.90;;;;;;5151559;27;20202;-67
2021/08/02 07:50:35;;;;;;;9.40;6.67;;;15.80;99.90;;;;;;5147409;27;20192;-67
2021/08/02 07:53:23;;;;;;;12.93;7.77;;;16.00;99.90;;;;;;5137633;27;20202;-67
2021/08/02 07:56:10;;;;;;;12.60;7.07;;;16.00;99.90;;;;;;5137248;27;20220;-67
2021/08/02 07:58:58;;;;;;;10.57;7.20;;;16.20;99.90;;;;;;5140542;27;20226;-67
2021/08/02 08:01:46;;;;;;;10.77;7.20;;;16.20;99.90;;;;;;5142614;27;20203;-67
2021/08/02 08:04:35;;;;;;;9.03;6.87;;;16.10;99.90;;;;;;5138590;27;20287;-67
2021/08/02 08:07:22;;;;;;;8.73;6.00;;;15.90;99.90;;;;;;5135891;27;20201;-67
2021/08/02 08:10:12;;;;;;;7.93;5.10;;;15.90;99.90;;;;;;5144091;27;20197;-67
2021/08/02 08:12:59;;;;;;;7.27;5.30;;;15.80;99.90;;;;;;5136636;27;20221;-67
2021/08/02 08:15:47;;;;;;;8.03;5.10;;;15.90;99.90;;;;;;5139479;27;20247;-67
2021/08/02 08:18:34;;;;;;;6.67;5.13;;;15.90;99.90;;;;;;5139486;27;20287;-67
2021/08/02 08:21:23;;;;;;;9.73;6.27;;;15.90;99.90;;;;;;5141933;27;20192;-67
2021/08/02 08:24:11;;;;;;;7.77;5.83;;;16.00;99.90;;;;;;5141265;27;20205;-67
2021/08/02 08:26:58;;;;;;;10.67;6.23;;;16.00;99.90;;;;;;5138841;27;20203;-67
2021/08/02 08:29:46;;;;;;;9.73;6.13;;;16.20;99.90;;;;;;5141720;27;20564;-67
2021/08/02 08:32:33;;;;;;;10.50;6.47;;;16.40;99.90;;;;;;5141231;27;20217;-67
2021/08/02 08:35:22;;;;;;;9.13;6.13;;;16.50;99.90;;;;;;5141757;27;20556;-67
2021/08/02 08:38:11;;;;;;;11.27;6.03;;;16.60;99.90;;;;;;5143823;27;20671;-67
2021/08/02 08:40:58;;;;;;;7.23;6.20;;;16.70;99.90;;;;;;5150562;27;20285;-67
2021/08/02 08:43:46;;;;;;;9.10;5.50;;;16.90;99.90;;;;;;5139136;27;20206;-67
2021/08/02 08:46:34;;;;;;;8.83;5.77;;;17.10;99.90;;;;;;5149250;27;20258;-67
2021/08/02 08:49:21;;;;;;;11.77;6.43;;;17.20;99.90;;;;;;5139801;27;20197;-67
2021/08/02 08:52:09;;;;;;;10.27;6.27;;;17.20;99.90;;;;;;5141416;27;20207;-67
2021/08/02 08:54:58;;;;;;;8.13;5.33;;;17.30;99.90;;;;;;5137686;27;20261;-67
2021/08/02 08:57:46;;;;;;;9.77;5.90;;;17.30;99.90;;;;;;5145788;27;20206;-67
2021/08/02 09:00:35;;;;;;;8.13;5.90;;;17.30;99.90;;;;;;5140944;27;20291;-67
2021/08/02 09:03:23;;;;;;;7.40;5.60;;;17.20;99.90;;;;;;5140839;27;20199;-67
2021/08/02 09:06:11;;;;;;;8.47;6.00;;;17.30;99.90;;;;;;5141733;27;20208;-67
2021/08/02 09:08:58;;;;;;;9.07;6.30;;;17.40;99.90;;;;;;5133603;27;20304;-67
2021/08/02 09:11:47;;;;;;;8.80;6.33;;;17.40;99.90;;;;;;5150384;27;20288;-67
2021/08/02 09:14:35;;;;;;;9.03;6.37;;;17.70;99.90;;;;;;5137262;27;20195;-67
2021/08/02 09:17:30;;;;;;;11.80;5.87;;;17.70;99.90;;;;;;5149705;27;20200;-67
2021/08/02 09:20:21;;;;;;;7.10;6.03;;;18.10;99.90;;;;;;5138837;27;20641;-66
2021/08/02 09:23:12;;;;;;;6.17;5.20;;;18.60;99.90;;;;;;5139696;27;20284;-67
2021/08/02 09:26:01;;;;;;;7.03;5.67;;;19.10;99.90;;;;;;5134729;27;20208;-67
2021/08/02 09:28:53;;;;;;;7.40;5.27;;;19.10;99.90;;;;;;5154730;27;20335;-67
2021/08/02 09:31:47;;;;;;;7.03;5.30;;;18.80;99.90;;;;;;5137889;27;20205;-67
2021/08/02 09:34:48;;;;;;;8.30;5.43;;;18.80;99.90;;;;;;5139376;27;20290;-67
2021/08/02 09:37:35;;;;;;;9.80;6.30;;;19.20;99.90;;;;;;5134873;27;20201;-67
2021/08/02 09:40:23;;;;;;;7.17;5.13;;;19.70;99.90;;;;;;5147549;27;20205;-67
2021/08/02 09:43:12;;;;;;;5.93;4.70;;;20.00;99.90;;;;;;5138748;27;20210;-67
2021/08/02 09:46:02;;;;;;;8.37;4.50;;;20.10;99.90;;;;;;5145082;27;20220;-67
2021/08/02 09:48:50;;;;;;;7.77;5.07;;;20.00;99.90;;;;;;5147931;27;20563;-67
2021/08/02 09:51:42;;;;;;;14.17;5.27;;;20.00;99.90;;;;;;5151542;27;20209;-67
2021/08/02 09:54:30;;;;;;;7.20;5.07;;;20.40;99.90;;;;;;5142968;27;20235;-67
2021/08/02 09:57:18;;;;;;;6.10;4.93;;;20.90;99.90;;;;;;5143987;27;20540;-67
2021/08/02 10:00:08;;;;;;;6.73;4.90;;;21.00;99.90;;;;;;5136092;27;20226;-67
2021/08/02 10:02:57;;;;;;;8.67;5.37;;;21.20;99.90;;;;;;5136571;27;20203;-67
2021/08/02 10:05:44;;;;;;;9.67;4.50;;;21.00;99.90;;;;;;5149523;27;20185;-67
2021/08/02 10:08:33;;;;;;;5.40;4.43;;;21.00;99.90;;;;;;5141707;27;20190;-67
2021/08/02 10:11:21;;;;;;;5.40;4.40;;;21.40;99.90;;;;;;5149945;27;20198;-67
2021/08/02 10:14:10;;;;;;;6.53;4.50;;;21.10;99.90;;;;;;5149941;27;20889;-67
2021/08/02 10:16:57;;;;;;;6.77;4.80;;;21.20;99.90;;;;;;5145262;27;20203;-68
2021/08/02 10:19:54;;;;;;;9.30;4.80;;;21.40;99.90;;;;;;5138717;27;20186;-67
2021/08/02 10:22:44;;;;;;;7.00;4.77;;;21.60;99.90;;;;;;5137198;27;20240;-67
2021/08/02 10:25:36;;;;;;;7.30;4.67;;;21.20;99.90;;;;;;5139733;27;20264;-67
2021/08/02 10:28:23;;;;;;;6.20;5.17;;;21.20;99.90;;;;;;5142953;27;20205;-67
2021/08/02 10:31:11;;;;;;;6.27;4.67;;;21.10;99.90;;;;;;5137239;27;20252;-67
2021/08/02 10:33:59;;;;;;;10.40;5.93;;;21.10;99.90;;;;;;5144649;27;20200;-67
2021/08/02 10:37:00;;;;;;;6.87;5.30;;;21.00;99.90;;;;;;5139986;27;20218;-67
2021/08/02 10:39:48;;;;;;;7.63;5.20;;;21.30;99.90;;;;;;5138711;27;20197;-67
2021/08/02 10:42:45;;;;;;;7.93;5.37;;;21.80;99.90;;;;;;5134873;27;20203;-67
2021/08/02 10:45:33;;;;;;;6.03;4.97;;;22.30;99.90;;;;;;5138607;27;20206;-67
2021/08/02 10:48:25;;;;;;;11.23;5.50;;;22.40;99.90;;;;;;5152414;27;20197;-67
2021/08/02 10:51:14;;;;;;;7.63;4.67;;;22.40;99.90;;;;;;5137697;27;20194;-67
2021/08/02 10:54:04;;;;;;;7.20;4.97;;;21.80;99.90;;;;;;5147134;27;20202;-66
2021/08/02 10:56:51;;;;;;;6.23;5.00;;;21.50;99.90;;;;;;5135061;27;20325;-67
2021/08/02 10:59:39;;;;;;;6.70;4.70;;;20.90;99.90;;;;;;5144981;27;20218;-66
2021/08/02 11:02:27;;;;;;;10.57;5.53;;;20.40;99.90;;;;;;5143162;27;20194;-67
2021/08/02 11:05:14;;;;;;;7.90;5.60;;;20.00;99.90;;;;;;5139061;27;20210;-68
2021/08/02 11:08:03;;;;;;;9.40;5.67;;;19.50;99.90;;;;;;5141660;27;20274;-67
2021/08/02 11:10:52;;;;;;;6.33;5.47;;;19.30;99.90;;;;;;5131643;27;20194;-67
2021/08/02 11:13:40;;;;;;;9.30;5.57;;;19.00;99.90;;;;;;5142859;27;20193;-67
2021/08/02 11:16:28;;;;;;;8.47;6.03;;;18.80;99.90;;;;;;5147431;27;20225;-67
2021/08/02 11:19:16;;;;;;;8.10;6.17;;;18.70;99.90;;;;;;5140867;27;20206;-67
2021/08/02 11:22:05;;;;;;;9.23;6.70;;;18.60;99.90;;;;;;5143341;27;20193;-67
2021/08/02 11:24:53;;;;;;;9.67;6.17;;;18.60;99.90;;;;;;5136254;27;20522;-68
2021/08/02 11:27:52;;;;;;;9.93;6.70;;;18.30;99.90;;;;;;5144636;27;20193;-67
2021/08/02 11:30:40;;;;;;;12.60;7.10;;;18.10;99.90;;;;;;5135705;27;20217;-67
2021/08/02 11:33:31;;;;;;;8.77;6.33;;;17.90;99.90;;;;;;5150628;27;20203;-67
2021/08/02 11:36:19;;;;;;;9.47;6.33;;;18.10;99.90;;;;;;5151159;27;20229;-67
2021/08/02 11:39:15;;;;;;;8.87;6.90;;;18.20;99.90;;;;;;5152031;27;20205;-67
2021/08/02 11:42:04;;;;;;;9.47;7.03;;;18.40;99.90;;;;;;5152335;27;20193;-67
2021/08/02 11:44:56;;;;;;;9.57;6.73;;;18.40;99.90;;;;;;5145137;27;20193;-67
2021/08/02 11:47:44;;;;;;;10.73;6.20;;;18.80;99.90;;;;;;5148419;27;20197;-67
2021/08/02 11:50:31;;;;;;;8.20;6.37;;;19.10;99.90;;;;;;5152686;27;20580;-67
2021/08/02 11:53:19;;;;;;;6.90;5.80;;;19.70;99.90;;;;;;5151848;27;20667;-67
2021/08/02 11:56:07;;;;;;;11.17;5.93;;;19.70;99.90;;;;;;5151855;27;20352;-67
2021/08/02 11:58:54;;;;;;;8.60;5.23;;;19.90;99.90;;;;;;5137088;27;20307;-67
2021/08/02 12:01:47;;;;;;;6.00;5.13;;;20.10;99.90;;;;;;5130940;27;20676;-67
2021/08/02 12:04:41;;;;;;;7.77;5.23;;;19.80;99.90;;;;;;5130894;27;20653;-67
2021/08/02 12:07:32;;;;;;;8.83;5.33;;;19.80;99.90;;;;;;5130668;27;20198;-67
2021/08/02 12:10:20;;;;;;;9.87;5.47;;;19.90;99.90;;;;;;5131413;27;20303;-67
2021/08/02 12:13:10;;;;;;;6.90;5.30;;;20.10;99.90;;;;;;5132444;27;20213;-66
2021/08/02 12:15:58;;;;;;;6.73;5.03;;;20.20;99.90;;;;;;5132329;27;20816;-66
2021/08/02 12:18:47;;;;;;;9.27;5.20;;;20.10;99.90;;;;;;5132117;27;20190;-66
2021/08/02 12:21:36;;;;;;;7.03;4.97;;;20.10;99.90;;;;;;5143680;27;20198;-66
2021/08/02 12:24:24;;;;;;;5.93;4.10;;;20.00;99.90;;;;;;5143390;27;20281;-67
2021/08/02 12:27:12;;;;;;;5.40;4.70;;;20.00;99.90;;;;;;5139416;27;20195;-67
2021/08/02 12:30:01;;;;;;;6.60;4.70;;;19.90;99.90;;;;;;5144900;27;20213;-67
2021/08/02 12:32:48;;;;;;;7.30;4.73;;;19.90;99.90;;;;;;5141080;27;20224;-66
2021/08/02 12:35:37;;;;;;;7.27;4.67;;;20.10;99.90;;;;;;5145828;27;20197;-67
2021/08/02 12:38:25;;;;;;;6.00;4.40;;;20.20;99.90;;;;;;5141697;27;20536;-66
2021/08/02 12:41:13;;;;;;;7.87;4.27;;;20.20;99.90;;;;;;5146211;27;20202;-66
2021/08/02 12:44:00;;;;;;;5.93;3.93;;;20.50;99.90;;;;;;5139790;27;20202;-66
2021/08/02 12:46:48;;;;;;;5.10;3.97;;;20.90;99.90;;;;;;5140656;27;20216;-66
2021/08/02 12:49:35;;;;;;;4.47;3.37;;;21.10;99.90;;;;;;5145688;27;20854;-67
2021/08/02 12:52:25;;;;;;;3.67;3.17;;;21.70;99.90;;;;;;5132325;27;20194;-66
2021/08/02 12:55:13;;;;;;;3.87;3.10;;;21.60;99.90;;;;;;5147113;27;20202;-66
2021/08/02 12:58:01;;;;;;;5.57;3.10;;;21.50;99.90;;;;;;5134234;27;20746;-66
2021/08/02 13:00:48;;;;;;;4.37;3.27;;;21.30;99.90;;;;;;5136982;27;20284;-66
2021/08/02 13:03:38;;;;;;;4.93;3.17;;;21.20;99.90;;;;;;5132109;27;20194;-66
2021/08/02 13:06:27;;;;;;;4.60;2.90;;;21.30;99.90;;;;;;5132060;27;20190;-66
2021/08/02 13:09:16;;;;;;;3.63;2.97;;;21.40;99.90;;;;;;5149552;27;20197;-66
2021/08/02 13:12:04;;;;;;;3.83;2.70;;;21.70;99.90;;;;;;5131148;28;20191;-67
2021/08/02 13:14:51;;;;;;;3.13;2.80;;;22.00;99.90;;;;;;5139406;27;20190;-67
2021/08/02 13:17:39;;;;;;;4.20;2.70;;;22.30;99.90;;;;;;5139336;27;20217;-66
2021/08/02 13:20:28;;;;;;;4.63;2.90;;;22.50;99.90;;;;;;5136928;27;20212;-66
2021/08/02 13:23:29;;;;;;;4.00;2.70;;;22.90;99.90;;;;;;5142465;27;20210;-66
2021/08/02 13:29:23;;;;;;;2.93;2.60;;;23.70;99.90;;;;;;5138045;27;20974;-66
2021/08/02 13:32:10;;;;;;;5.40;2.50;;;23.80;99.90;;;;;;5142430;27;20195;-67
2021/08/02 13:34:58;;;;;;;3.17;2.87;;;23.30;99.90;;;;;;5143674;27;20647;-67
2021/08/02 13:37:45;;;;;;;4.87;2.83;;;22.70;99.90;;;;;;5135462;27;20901;-66
2021/08/02 13:40:33;;;;;;;4.33;2.50;;;22.40;99.90;;;;;;5133150;27;20652;-66
2021/08/02 13:43:22;;;;;;;4.67;2.60;;;22.40;99.90;;;;;;5137029;27;20206;-66
2021/08/02 13:46:10;;;;;;;5.17;2.70;;;22.70;99.90;;;;;;5132691;27;20758;-66
2021/08/02 13:48:58;;;;;;;3.83;2.50;;;22.80;99.90;;;;;;5139251;27;20205;-66
2021/08/02 13:51:46;;;;;;;4.40;2.63;;;22.70;99.90;;;;;;5149168;27;20197;-66
2021/08/02 13:54:34;;;;;;;4.37;2.83;;;22.80;99.90;;;;;;5139960;27;20286;-66
2021/08/02 13:57:21;;;;;;;3.77;2.53;;;23.50;99.90;;;;;;5134494;27;20222;-66
2021/08/02 14:00:11;;;;;;;3.83;2.60;;;23.90;99.90;;;;;;5115492;27;20191;-66
2021/08/02 14:02:59;;;;;;;6.07;2.83;;;24.10;99.90;;;;;;5114117;28;20199;-66
2021/08/02 14:05:47;;;;;;;3.63;2.70;;;24.60;99.90;;;;;;5114021;28;20646;-66
2021/08/02 14:08:34;;;;;;;2.95;2.50;;;24.90;99.90;;;;;;5114870;27;20192;-66
2021/08/02 14:11:23;;;;;;;2.50;2.20;;;25.00;99.90;;;;;;5108518;28;20841;-66
2021/08/02 14:14:10;;;;;;;3.47;2.20;;;25.10;99.90;;;;;;5114448;28;20204;-66
2021/08/02 14:17:03;;;;;;;3.97;2.58;;;25.20;99.90;;;;;;5114547;28;20211;-66
2021/08/02 14:19:50;;;;;;;2.60;2.05;;;25.10;99.90;;;;;;5108070;28;20199;-67
2021/08/02 14:22:38;;;;;;;2.75;1.95;;;24.90;99.90;;;;;;5113464;28;20230;-67
2021/08/02 14:25:26;;;;;;;3.28;2.22;;;24.60;99.90;;;;;;5112578;28;20221;-66
2021/08/02 14:28:13;;;;;;;4.47;2.25;;;24.80;99.90;;;;;;5111312;28;20191;-66
2021/08/02 14:31:01;;;;;;;3.83;2.50;;;24.20;99.90;;;;;;5111734;28;20207;-66